createdAt,value
2023-03-21T00:02:07.914Z,1.83
2023-03-21T00:04:55.017Z,1.79
2023-03-21T00:07:41.221Z,1.76
2023-03-21T00:10:39.169Z,1.74
2023-03-21T00:13:27.540Z,1.75
2023-03-21T00:16:22.955Z,1.76
2023-03-21T00:19:18.528Z,1.75
2023-03-21T00:22:08.080Z,1.71
2023-03-21T00:24:54.848Z,1.73
2023-03-21T00:27:56.963Z,1.71
2023-03-21T00:30:44.274Z,1.71
2023-03-21T00:33:29.747Z,1.71
2023-03-21T00:36:15.370Z,1.68
2023-03-21T00:39:00.260Z,1.64
2023-03-21T00:41:45.136Z,1.63
2023-03-21T00:44:35.989Z,1.64
2023-03-21T00:47:20.632Z,1.70
2023-03-21T00:50:06.870Z,1.76
2023-03-21T00:52:51.540Z,1.82
2023-03-21T00:55:38.372Z,1.91
2023-03-21T00:58:23.496Z,1.96
2023-03-21T01:01:08.661Z,1.97
2023-03-21T01:04:04.670Z,2.04
2023-03-21T01:06:49.336Z,2.09
2023-03-21T01:09:34.467Z,2.12
2023-03-21T01:12:18.790Z,2.20
2023-03-21T01:15:03.783Z,2.25
2023-03-21T01:17:48.738Z,2.28
2023-03-21T01:20:33.642Z,2.30
2023-03-21T01:23:18.757Z,2.34
2023-03-21T01:26:04.013Z,2.37
2023-03-21T01:28:48.958Z,2.42
2023-03-21T01:31:33.367Z,2.48
2023-03-21T01:34:17.968Z,2.56
2023-03-21T01:37:03.041Z,2.62
2023-03-21T01:39:49.460Z,2.75
2023-03-21T01:42:34.261Z,2.87
2023-03-21T01:45:56.661Z,2.95
2023-03-21T01:48:53.029Z,3.02
2023-03-21T01:51:43.386Z,3.09
2023-03-21T01:54:32.641Z,3.11
2023-03-21T01:57:24.113Z,3.10
2023-03-21T02:00:12.592Z,3.06
2023-03-21T02:03:26.256Z,3.06
2023-03-21T02:06:46.052Z,2.99
2023-03-21T02:09:46.860Z,2.88
2023-03-21T02:12:34.759Z,2.73
2023-03-21T02:15:25.828Z,2.63
2023-03-21T02:18:39.171Z,2.58
2023-03-21T02:22:00.174Z,2.49
2023-03-21T02:25:24.670Z,2.39
2023-03-21T02:28:25.488Z,2.37
2023-03-21T02:31:20.476Z,2.34
2023-03-21T02:34:42.512Z,2.30
2023-03-21T02:37:40.195Z,2.23
2023-03-21T02:40:37.506Z,2.15
2023-03-21T02:43:36.498Z,2.12
2023-03-21T02:46:24.196Z,2.16
2023-03-21T02:49:22.851Z,2.22
2023-03-21T02:52:17.138Z,2.23
2023-03-21T02:55:14.864Z,2.29
2023-03-21T02:58:16.711Z,2.34
2023-03-21T03:01:34.943Z,2.42
2023-03-21T03:04:23.704Z,2.48
2023-03-21T03:07:27.742Z,2.60
2023-03-21T03:10:31.878Z,2.72
2023-03-21T03:13:41.558Z,2.87
2023-03-21T03:16:37.719Z,2.98
2023-03-21T03:19:27.119Z,3.04
2023-03-21T03:22:23.560Z,3.17
2023-03-21T03:25:23.060Z,3.23
2023-03-21T03:28:13.811Z,3.34
2023-03-21T03:31:09.237Z,3.36
2023-03-21T03:34:06.603Z,3.42
2023-03-21T03:36:58.090Z,3.43
2023-03-21T03:39:51.215Z,3.41
2023-03-21T03:42:41.587Z,3.46
2023-03-21T03:45:49.612Z,3.45
2023-03-21T03:48:51.538Z,3.56
2023-03-21T03:51:52.343Z,3.59
2023-03-21T03:54:51.807Z,3.61
2023-03-21T03:57:38.980Z,3.62
2023-03-21T04:00:24.779Z,3.59
2023-03-21T04:03:10.564Z,3.64
2023-03-21T04:05:55.649Z,3.66
2023-03-21T04:08:40.464Z,3.64
2023-03-21T04:11:25.713Z,3.65
2023-03-21T04:14:12.189Z,3.63
2023-03-21T04:16:57.065Z,3.63
2023-03-21T04:19:42.194Z,3.64
2023-03-21T04:22:27.457Z,3.61
2023-03-21T04:25:18.991Z,3.69
2023-03-21T04:28:12.897Z,3.80
2023-03-21T04:31:24.453Z,3.81
2023-03-21T04:34:13.861Z,3.86
2023-03-21T04:37:10.405Z,3.90
2023-03-21T04:39:56.753Z,4.00
2023-03-21T04:42:41.662Z,4.12
2023-03-21T04:45:26.744Z,4.23
2023-03-21T04:48:13.630Z,4.27
2023-03-21T04:50:58.974Z,4.37
2023-03-21T04:53:48.623Z,4.51
2023-03-21T04:56:35.439Z,4.64
2023-03-21T04:59:21.516Z,4.79
2023-03-21T05:02:06.459Z,5.00
2023-03-21T05:04:51.353Z,5.19
2023-03-21T05:07:40.544Z,5.40
2023-03-21T05:10:25.467Z,5.65
2023-03-21T05:13:11.002Z,5.76
2023-03-21T05:15:56.061Z,6.00
2023-03-21T05:18:41.639Z,6.19
2023-03-21T05:21:40.911Z,6.31
2023-03-21T05:24:30.757Z,6.34
2023-03-21T05:27:33.456Z,6.48
2023-03-21T05:30:19.415Z,6.54
2023-03-21T05:33:06.636Z,6.62
2023-03-21T05:35:52.649Z,6.67
2023-03-21T05:38:42.114Z,6.77
2023-03-21T05:41:27.347Z,6.79
2023-03-21T05:44:11.991Z,6.79
2023-03-21T05:46:57.438Z,6.81
2023-03-21T05:49:49.292Z,6.88
2023-03-21T05:52:34.907Z,6.97
2023-03-21T05:55:26.779Z,7.03
2023-03-21T05:58:11.922Z,7.05
2023-03-21T06:00:58.359Z,6.99
2023-03-21T06:03:49.181Z,7.14
2023-03-21T06:06:35.537Z,7.16
2023-03-21T06:09:22.790Z,7.25
2023-03-21T06:12:13.843Z,7.34
2023-03-21T06:15:20.593Z,7.40
2023-03-21T06:18:13.487Z,7.53
2023-03-21T06:21:09.124Z,7.59
2023-03-21T06:24:30.818Z,7.66
2023-03-21T06:27:27.358Z,7.70
2023-03-21T06:31:08.406Z,7.74
2023-03-21T06:34:25.821Z,7.91
2023-03-21T06:37:14.463Z,8.02
2023-03-21T06:40:02.262Z,8.03
2023-03-21T06:42:49.765Z,8.16
2023-03-21T06:45:56.066Z,8.12
2023-03-21T06:48:45.201Z,8.14
2023-03-21T06:52:32.285Z,7.96
2023-03-21T06:55:18.767Z,7.89
2023-03-21T06:58:07.933Z,7.90
2023-03-21T07:00:53.126Z,7.85
2023-03-21T07:03:38.930Z,7.91
2023-03-21T07:06:51.915Z,7.96
2023-03-21T07:09:40.580Z,7.89
2023-03-21T07:13:17.108Z,7.87
2023-03-21T07:16:22.684Z,7.92
2023-03-21T07:19:53.366Z,7.92
2023-03-21T07:23:04.183Z,8.20
2023-03-21T07:29:50.390Z,8.74
2023-03-21T07:36:43.611Z,9.14
2023-03-21T07:39:38.213Z,9.19
2023-03-21T07:42:33.125Z,9.17
2023-03-21T07:45:23.683Z,9.27
2023-03-21T07:51:19.946Z,9.34
2023-03-21T07:54:06.862Z,9.40
2023-03-21T07:56:54.110Z,9.25
2023-03-21T07:59:44.574Z,9.23
2023-03-21T08:02:32.560Z,9.10
2023-03-21T08:17:35.382Z,9.11
2023-03-21T08:20:23.473Z,9.20
2023-03-21T08:23:13.441Z,9.23
2023-03-21T08:26:01.186Z,9.17
2023-03-21T08:33:38.468Z,9.17
2023-03-21T08:36:37.114Z,9.08
2023-03-21T08:39:29.395Z,9.28
2023-03-21T08:42:22.454Z,9.37
2023-03-21T08:45:12.428Z,9.78
2023-03-21T08:47:57.659Z,9.83
2023-03-21T08:51:25.706Z,10.14
2023-03-21T08:59:18.785Z,10.07
2023-03-21T09:02:44.102Z,9.96
2023-03-21T09:09:12.666Z,9.82
2023-03-21T09:12:06.131Z,9.61
2023-03-21T09:15:51.901Z,9.35
2023-03-21T09:19:10.867Z,9.43
2023-03-21T09:21:56.946Z,9.46
2023-03-21T09:25:05.053Z,9.52
2023-03-21T09:27:56.482Z,9.63
2023-03-21T09:31:07.779Z,9.80
2023-03-21T09:33:57.544Z,9.92
2023-03-21T09:36:44.947Z,9.93
2023-03-21T09:39:36.305Z,9.82
2023-03-21T09:42:33.840Z,9.75
2023-03-21T09:45:28.541Z,9.60
2023-03-21T09:48:31.610Z,9.55
2023-03-21T09:51:19.015Z,9.45
2023-03-21T09:54:17.273Z,9.40
2023-03-21T09:57:14.964Z,9.44
2023-03-21T10:00:18.573Z,9.48
2023-03-21T10:03:15.027Z,9.43
2023-03-21T10:06:09.211Z,9.45
2023-03-21T10:09:23.084Z,9.48
2023-03-21T10:12:20.424Z,9.58
2023-03-21T10:18:25.204Z,9.76
2023-03-21T10:21:51.751Z,10.00
2023-03-21T10:24:34.472Z,10.25
2023-03-21T10:27:19.696Z,10.63
2023-03-21T10:30:07.703Z,11.07
2023-03-21T10:32:52.972Z,11.29
2023-03-21T10:35:40.917Z,11.63
2023-03-21T10:38:30.721Z,11.68
2023-03-21T10:41:20.478Z,11.83
2023-03-21T10:44:34.931Z,11.88
2023-03-21T10:47:28.180Z,12.21
2023-03-21T10:50:16.829Z,12.51
2023-03-21T10:53:01.824Z,12.61
2023-03-21T11:00:31.851Z,12.64
2023-03-21T11:03:32.801Z,12.56
2023-03-21T11:06:27.959Z,12.53
2023-03-21T11:09:58.971Z,12.40
2023-03-21T11:13:15.953Z,12.37
2023-03-21T11:16:37.854Z,12.83
2023-03-21T11:19:38.501Z,13.12
2023-03-21T11:22:30.153Z,13.60
2023-03-21T11:25:38.928Z,13.72
2023-03-21T11:28:32.718Z,13.20
2023-03-21T11:31:27.213Z,12.74
2023-03-21T11:34:38.474Z,12.41
2023-03-21T11:37:42.104Z,12.20
2023-03-21T11:40:35.931Z,11.80
2023-03-21T11:43:22.599Z,11.18
2023-03-21T11:46:16.008Z,10.66
2023-03-21T11:49:11.499Z,10.33
2023-03-21T11:52:13.374Z,10.08
2023-03-21T11:55:13.993Z,9.92
2023-03-21T11:58:14.694Z,9.85
2023-03-21T12:01:29.062Z,9.99
2023-03-21T12:04:31.100Z,10.41
2023-03-21T12:08:30.683Z,10.89
2023-03-21T12:12:47.276Z,11.67
2023-03-21T12:16:09.716Z,11.89
2023-03-21T12:19:34.888Z,11.82
2023-03-21T12:22:54.463Z,11.66
2023-03-21T12:25:57.340Z,11.30
2023-03-21T12:28:45.633Z,10.92
2023-03-21T12:32:01.740Z,10.48
2023-03-21T12:35:31.987Z,10.07
2023-03-21T12:38:40.326Z,9.75
2023-03-21T12:42:36.095Z,9.34
2023-03-21T12:45:46.510Z,9.18
2023-03-21T12:48:49.467Z,8.89
2023-03-21T12:52:25.942Z,8.82
2023-03-21T12:55:39.589Z,8.80
2023-03-21T12:59:06.525Z,8.62
2023-03-21T13:02:27.351Z,8.57
2023-03-21T13:05:43.418Z,8.52
2023-03-21T13:08:31.029Z,8.55
2023-03-21T13:11:21.262Z,8.57
2023-03-21T13:14:18.477Z,8.61
2023-03-21T13:17:11.869Z,8.71
2023-03-21T13:20:23.831Z,8.75
2023-03-21T13:23:08.634Z,8.85
2023-03-21T13:25:57.041Z,9.04
2023-03-21T13:28:41.677Z,9.40
2023-03-21T13:31:28.355Z,9.65
2023-03-21T13:34:15.102Z,9.94
2023-03-21T13:37:01.139Z,10.17
2023-03-21T13:39:46.675Z,10.35
2023-03-21T13:42:32.955Z,10.59
2023-03-21T13:45:33.367Z,10.80
2023-03-21T13:48:28.812Z,10.92
2023-03-21T13:51:18.920Z,10.93
2023-03-21T13:54:09.548Z,11.08
2023-03-21T13:56:59.961Z,11.31
2023-03-21T14:00:07.559Z,11.11
2023-03-21T14:03:05.802Z,11.17
2023-03-21T14:05:50.999Z,11.37
2023-03-21T14:08:39.248Z,11.19
2023-03-21T14:11:23.829Z,10.99
2023-03-21T14:14:09.595Z,10.85
2023-03-21T14:16:54.868Z,10.55
2023-03-21T14:19:39.684Z,10.48
2023-03-21T14:22:24.712Z,11.04
2023-03-21T14:25:15.243Z,11.50
2023-03-21T14:28:03.332Z,11.57
2023-03-21T14:30:55.129Z,11.36
2023-03-21T14:33:43.638Z,10.85
2023-03-21T14:36:32.404Z,10.68
2023-03-21T14:39:25.224Z,10.81
2023-03-21T14:42:13.123Z,10.70
2023-03-21T14:44:59.889Z,10.35
2023-03-21T14:48:00.112Z,10.11
2023-03-21T14:50:56.170Z,9.91
2023-03-21T14:53:43.546Z,9.75
2023-03-21T14:56:28.574Z,9.64
2023-03-21T14:59:17.003Z,9.51
2023-03-21T15:02:22.126Z,9.41
2023-03-21T15:05:14.787Z,9.31
2023-03-21T15:08:02.741Z,9.30
2023-03-21T15:11:07.338Z,9.26
2023-03-21T15:13:55.199Z,9.20
2023-03-21T15:16:40.759Z,9.18
2023-03-21T15:19:33.098Z,9.14
2023-03-21T15:22:30.497Z,9.14
2023-03-21T15:25:21.809Z,9.09
2023-03-21T15:28:06.712Z,9.09
2023-03-21T15:30:52.932Z,9.08
2023-03-21T15:33:37.892Z,9.08
2023-03-21T15:36:42.349Z,9.07
2023-03-21T15:39:28.532Z,9.04
2023-03-21T15:42:27.401Z,9.00
2023-03-21T15:45:25.049Z,8.86
2023-03-21T15:48:14.095Z,8.71
2023-03-21T15:51:10.849Z,8.53
2023-03-21T15:53:55.859Z,8.37
2023-03-21T15:56:45.415Z,8.24
2023-03-21T15:59:34.578Z,8.14
2023-03-21T16:02:22.694Z,8.01
2023-03-21T16:05:27.941Z,7.93
2023-03-21T16:08:26.617Z,7.80
2023-03-21T16:11:17.696Z,7.69
2023-03-21T16:14:02.643Z,7.57
2023-03-21T16:16:48.363Z,7.49
2023-03-21T16:19:33.975Z,7.39
2023-03-21T16:22:20.738Z,7.36
2023-03-21T16:25:06.160Z,7.32
2023-03-21T16:27:51.127Z,7.29
2023-03-21T16:30:37.919Z,7.30
2023-03-21T16:33:24.803Z,7.31
2023-03-21T16:36:17.167Z,7.30
2023-03-21T16:39:14.770Z,7.34
2023-03-21T16:41:59.509Z,7.42
2023-03-21T16:44:44.414Z,7.46
2023-03-21T16:47:30.130Z,7.48
2023-03-21T16:50:20.677Z,7.51
2023-03-21T16:53:05.667Z,7.50
2023-03-21T16:55:51.227Z,7.52
2023-03-21T16:58:35.935Z,7.53
2023-03-21T17:01:25.272Z,7.53
2023-03-21T17:04:10.584Z,7.54
2023-03-21T17:06:55.321Z,7.54
2023-03-21T17:09:41.803Z,7.51
2023-03-21T17:12:26.813Z,7.44
2023-03-21T17:15:12.474Z,7.37
2023-03-21T17:17:57.314Z,7.31
2023-03-21T17:20:42.106Z,7.29
2023-03-21T17:23:27.141Z,7.20
2023-03-21T17:26:19.799Z,7.13
2023-03-21T17:29:05.004Z,7.03
2023-03-21T17:31:50.348Z,6.98
2023-03-21T17:34:35.029Z,7.02
2023-03-21T17:37:20.072Z,7.04
2023-03-21T17:40:06.804Z,7.14
2023-03-21T17:42:52.493Z,7.24
2023-03-21T17:46:02.740Z,7.36
2023-03-21T17:48:48.806Z,7.39
2023-03-21T17:51:34.010Z,7.38
2023-03-21T17:54:18.710Z,7.38
2023-03-21T17:57:03.802Z,7.37
2023-03-21T17:59:48.710Z,7.37
2023-03-21T18:02:33.925Z,7.41
2023-03-21T18:05:20.943Z,7.47
2023-03-21T18:08:11.999Z,7.48
2023-03-21T18:10:57.354Z,7.51
2023-03-21T18:13:43.518Z,7.51
2023-03-21T18:16:28.598Z,7.54
2023-03-21T18:19:13.891Z,7.57
2023-03-21T18:21:58.411Z,7.57
2023-03-21T18:24:44.598Z,7.55
2023-03-21T18:27:32.722Z,7.57
2023-03-21T18:30:36.118Z,7.55
2023-03-21T18:33:23.669Z,7.54
2023-03-21T18:36:10.133Z,7.54
2023-03-21T18:38:55.919Z,7.55
2023-03-21T18:41:40.656Z,7.52
2023-03-21T18:44:25.630Z,7.49
2023-03-21T18:47:10.984Z,7.48
2023-03-21T18:50:14.430Z,7.43
2023-03-21T18:52:59.756Z,7.48
2023-03-21T18:55:47.269Z,7.48
2023-03-21T18:58:32.895Z,7.44
2023-03-21T19:01:18.171Z,7.46
2023-03-21T19:04:21.454Z,7.48
2023-03-21T19:07:07.955Z,7.49
2023-03-21T19:10:15.332Z,7.50
2023-03-21T19:12:57.102Z,7.47
2023-03-21T19:15:42.672Z,7.44
2023-03-21T19:18:56.868Z,7.39
2023-03-21T19:21:32.301Z,7.38
2023-03-21T19:24:28.597Z,7.34
2023-03-21T19:27:14.070Z,7.34
2023-03-21T19:30:13.419Z,7.33
2023-03-21T19:32:58.917Z,7.27
2023-03-21T19:35:43.865Z,7.23
2023-03-21T19:38:28.678Z,7.21
2023-03-21T19:41:13.776Z,7.17
2023-03-21T19:43:58.682Z,7.15
2023-03-21T19:46:43.647Z,7.14
2023-03-21T19:49:42.885Z,7.14
2023-03-21T19:52:36.742Z,7.11
2023-03-21T19:55:21.434Z,7.13
2023-03-21T19:58:06.557Z,7.13
2023-03-21T20:00:51.489Z,7.11
2023-03-21T20:03:37.507Z,7.14
2023-03-21T20:06:23.365Z,7.12
2023-03-21T20:12:13.610Z,7.11
2023-03-21T20:15:12.130Z,7.10
2023-03-21T20:18:01.371Z,7.10
2023-03-21T20:20:47.360Z,7.07
2023-03-21T20:23:34.766Z,7.03
2023-03-21T20:26:19.729Z,7.06
2023-03-21T20:29:48.459Z,7.03
2023-03-21T20:32:11.410Z,7.00
2023-03-21T20:35:07.633Z,6.99
2023-03-21T20:38:01.439Z,6.99
2023-03-21T20:40:47.337Z,6.97
2023-03-21T20:46:38.016Z,6.96
2023-03-21T20:49:23.790Z,6.96
2023-03-21T20:55:13.843Z,6.96
2023-03-21T20:58:02.081Z,6.91
2023-03-21T21:00:49.091Z,6.92
2023-03-21T21:03:38.640Z,6.93
2023-03-21T21:06:23.606Z,6.89
2023-03-21T21:09:08.718Z,6.88
2023-03-21T21:12:09.720Z,6.88
2023-03-21T21:14:56.594Z,6.88
2023-03-21T21:20:45.747Z,6.86
2023-03-21T21:23:36.360Z,6.83
2023-03-21T21:26:21.309Z,6.81
2023-03-21T21:29:06.515Z,6.78
2023-03-21T21:31:51.436Z,6.78
2023-03-21T21:34:36.775Z,6.77
2023-03-21T21:37:22.040Z,6.75
2023-03-21T21:40:13.281Z,6.71
2023-03-21T21:43:02.724Z,6.67
2023-03-21T21:45:48.822Z,6.68
2023-03-21T21:48:33.917Z,6.67
2023-03-21T21:51:25.590Z,6.68
2023-03-21T21:54:10.376Z,6.68
2023-03-21T21:56:57.407Z,6.66
2023-03-21T21:59:42.103Z,6.60
2023-03-21T22:02:27.420Z,6.62
2023-03-21T22:05:12.339Z,6.63
2023-03-21T22:07:57.421Z,6.64
2023-03-21T22:10:45.441Z,6.65
2023-03-21T22:13:30.676Z,6.65
2023-03-21T22:16:15.368Z,6.63
2023-03-21T22:19:00.671Z,6.60
2023-03-21T22:21:45.556Z,6.59
2023-03-21T22:24:30.387Z,6.62
2023-03-21T22:27:16.406Z,6.58
2023-03-21T22:30:04.315Z,6.58
2023-03-21T22:33:02.519Z,6.58
2023-03-21T22:35:53.030Z,6.60
2023-03-21T22:38:37.906Z,6.57
2023-03-21T22:41:22.907Z,6.59
2023-03-21T22:44:07.783Z,6.53
2023-03-21T22:46:52.279Z,6.53
2023-03-21T22:49:38.358Z,6.48
2023-03-21T22:52:23.546Z,6.45
2023-03-21T22:55:09.372Z,6.46
2023-03-21T22:57:54.083Z,6.47
2023-03-21T23:00:39.172Z,6.45
2023-03-21T23:03:23.920Z,6.43
2023-03-21T23:06:08.741Z,6.43
2023-03-21T23:08:53.714Z,6.42
2023-03-21T23:11:39.228Z,6.44
2023-03-21T23:14:24.258Z,6.42
2023-03-21T23:17:09.468Z,6.42
2023-03-21T23:19:54.201Z,6.40
2023-03-21T23:22:39.690Z,6.40
2023-03-21T23:25:24.646Z,6.38
2023-03-21T23:28:09.191Z,6.35
2023-03-21T23:30:54.196Z,6.36
2023-03-21T23:33:39.126Z,6.34
2023-03-21T23:36:23.656Z,6.34
2023-03-21T23:39:08.740Z,6.33
2023-03-21T23:41:53.711Z,6.29
2023-03-21T23:44:38.548Z,6.30
2023-03-21T23:47:23.504Z,6.30
2023-03-21T23:50:09.366Z,6.30
2023-03-21T23:52:53.961Z,6.28
2023-03-21T23:55:39.737Z,6.29
2023-03-21T23:58:27.466Z,6.28
